sensor_id;sensor_type;location;lat;lon;timestamp;P1;P2;P0
45871;PMS5003;32333;55.844;-3.210;2023-04-24T00:01:48;0;0;
45871;PMS5003;32333;55.844;-3.210;2023-04-24T00:04:16;0;0;
45871;PMS5003;32333;55.844;-3.210;2023-04-24T00:06:43;0;0;
45871;PMS5003;32333;55.844;-3.210;2023-04-24T00:09:12;0;0;
45871;PMS5003;32333;55.844;-3.210;2023-04-24T00:11:39;0;0;
45871;PMS5003;32333;55.844;-3.210;2023-04-24T00:14:35;0;0;
45871;PMS5003;32333;55.844;-3.210;2023-04-24T00:17:02;0;0;
45871;PMS5003;32333;55.844;-3.210;2023-04-24T00:19:29;0;0;
45871;PMS5003;32333;55.844;-3.210;2023-04-24T00:21:57;0;0;
45871;PMS5003;32333;55.844;-3.210;2023-04-24T00:24:25;0;0;
45871;PMS5003;32333;55.844;-3.210;2023-04-24T00:26:52;0;0;
45871;PMS5003;32333;55.844;-3.210;2023-04-24T00:29:19;0;0;
45871;PMS5003;32333;55.844;-3.210;2023-04-24T00:31:48;0;0;
45871;PMS5003;32333;55.844;-3.210;2023-04-24T00:34:16;0;0;
45871;PMS5003;32333;55.844;-3.210;2023-04-24T00:36:43;0;0;
45871;PMS5003;32333;55.844;-3.210;2023-04-24T00:39:11;0;0;
45871;PMS5003;32333;55.844;-3.210;2023-04-24T00:41:38;0;0;
45871;PMS5003;32333;55.844;-3.210;2023-04-24T00:44:35;0;0;
45871;PMS5003;32333;55.844;-3.210;2023-04-24T00:47:03;0;0;
45871;PMS5003;32333;55.844;-3.210;2023-04-24T00:49:30;0;0;
45871;PMS5003;32333;55.844;-3.210;2023-04-24T00:51:59;0;0;
45871;PMS5003;32333;55.844;-3.210;2023-04-24T00:54:27;0;0;
45871;PMS5003;32333;55.844;-3.210;2023-04-24T00:56:54;0;0;
45871;PMS5003;32333;55.844;-3.210;2023-04-24T00:59:22;0;0;
45871;PMS5003;32333;55.844;-3.210;2023-04-24T01:01:50;0;0;
45871;PMS5003;32333;55.844;-3.210;2023-04-24T01:04:19;0;0;
45871;PMS5003;32333;55.844;-3.210;2023-04-24T01:06:46;0;0;
45871;PMS5003;32333;55.844;-3.210;2023-04-24T01:09:15;0;0;
45871;PMS5003;32333;55.844;-3.210;2023-04-24T01:11:43;0;0;
45871;PMS5003;32333;55.844;-3.210;2023-04-24T01:14:35;0;0;
45871;PMS5003;32333;55.844;-3.210;2023-04-24T01:17:04;1;0;
45871;PMS5003;32333;55.844;-3.210;2023-04-24T01:19:31;0;0;
45871;PMS5003;32333;55.844;-3.210;2023-04-24T01:22:00;0;0;
45871;PMS5003;32333;55.844;-3.210;2023-04-24T01:24:30;0;0;
45871;PMS5003;32333;55.844;-3.210;2023-04-24T01:26:58;0;0;
45871;PMS5003;32333;55.844;-3.210;2023-04-24T01:29:26;1;1;
45871;PMS5003;32333;55.844;-3.210;2023-04-24T01:31:53;0;0;
45871;PMS5003;32333;55.844;-3.210;2023-04-24T01:34:23;0;0;
45871;PMS5003;32333;55.844;-3.210;2023-04-24T01:36:50;0;0;
45871;PMS5003;32333;55.844;-3.210;2023-04-24T01:39:18;0;0;
45871;PMS5003;32333;55.844;-3.210;2023-04-24T01:41:45;0;0;
45871;PMS5003;32333;55.844;-3.210;2023-04-24T01:44:35;0;0;
45871;PMS5003;32333;55.844;-3.210;2023-04-24T01:47:03;0;0;
45871;PMS5003;32333;55.844;-3.210;2023-04-24T01:49:31;0;0;
45871;PMS5003;32333;55.844;-3.210;2023-04-24T01:52:00;0;0;
45871;PMS5003;32333;55.844;-3.210;2023-04-24T01:54:27;0;0;
45871;PMS5003;32333;55.844;-3.210;2023-04-24T01:56:55;0;0;
45871;PMS5003;32333;55.844;-3.210;2023-04-24T01:59:23;0;0;
45871;PMS5003;32333;55.844;-3.210;2023-04-24T02:01:54;0;0;
45871;PMS5003;32333;55.844;-3.210;2023-04-24T02:04:21;0;0;
45871;PMS5003;32333;55.844;-3.210;2023-04-24T02:06:49;0;0;
45871;PMS5003;32333;55.844;-3.210;2023-04-24T02:09:17;0;0;
45871;PMS5003;32333;55.844;-3.210;2023-04-24T02:11:44;0;0;
45871;PMS5003;32333;55.844;-3.210;2023-04-24T02:14:35;0;0;
45871;PMS5003;32333;55.844;-3.210;2023-04-24T02:17:03;0;0;
45871;PMS5003;32333;55.844;-3.210;2023-04-24T02:19:30;0;0;
45871;PMS5003;32333;55.844;-3.210;2023-04-24T02:21:59;0;0;
45871;PMS5003;32333;55.844;-3.210;2023-04-24T02:24:26;0;0;
45871;PMS5003;32333;55.844;-3.210;2023-04-24T02:26:54;0;0;
45871;PMS5003;32333;55.844;-3.210;2023-04-24T02:29:21;0;0;
45871;PMS5003;32333;55.844;-3.210;2023-04-24T02:31:49;0;0;
45871;PMS5003;32333;55.844;-3.210;2023-04-24T02:34:17;0;0;
45871;PMS5003;32333;55.844;-3.210;2023-04-24T02:36:44;0;0;
45871;PMS5003;32333;55.844;-3.210;2023-04-24T02:39:13;0;0;
45871;PMS5003;32333;55.844;-3.210;2023-04-24T02:41:40;0;0;
45871;PMS5003;32333;55.844;-3.210;2023-04-24T02:44:35;0;0;
45871;PMS5003;32333;55.844;-3.210;2023-04-24T02:47:02;0;0;
45871;PMS5003;32333;55.844;-3.210;2023-04-24T02:49:30;0;0;
45871;PMS5003;32333;55.844;-3.210;2023-04-24T02:51:58;0;0;
45871;PMS5003;32333;55.844;-3.210;2023-04-24T02:54:26;0;0;
45871;PMS5003;32333;55.844;-3.210;2023-04-24T02:56:53;0;0;
45871;PMS5003;32333;55.844;-3.210;2023-04-24T02:59:21;0;0;
45871;PMS5003;32333;55.844;-3.210;2023-04-24T03:01:49;0;0;
45871;PMS5003;32333;55.844;-3.210;2023-04-24T03:04:16;0;0;
45871;PMS5003;32333;55.844;-3.210;2023-04-24T03:06:44;0;0;
45871;PMS5003;32333;55.844;-3.210;2023-04-24T03:09:12;0;0;
45871;PMS5003;32333;55.844;-3.210;2023-04-24T03:11:40;0;0;
45871;PMS5003;32333;55.844;-3.210;2023-04-24T03:14:35;0;0;
45871;PMS5003;32333;55.844;-3.210;2023-04-24T03:17:03;0;0;
45871;PMS5003;32333;55.844;-3.210;2023-04-24T03:19:31;0;0;
45871;PMS5003;32333;55.844;-3.210;2023-04-24T03:21:59;3;0;
45871;PMS5003;32333;55.844;-3.210;2023-04-24T03:24:29;0;0;
45871;PMS5003;32333;55.844;-3.210;2023-04-24T03:26:56;0;0;
45871;PMS5003;32333;55.844;-3.210;2023-04-24T03:29:24;0;0;
45871;PMS5003;32333;55.844;-3.210;2023-04-24T03:31:52;0;0;
45871;PMS5003;32333;55.844;-3.210;2023-04-24T03:34:20;0;0;
45871;PMS5003;32333;55.844;-3.210;2023-04-24T03:36:48;0;0;
45871;PMS5003;32333;55.844;-3.210;2023-04-24T03:39:16;0;0;
45871;PMS5003;32333;55.844;-3.210;2023-04-24T03:41:43;0;0;
45871;PMS5003;32333;55.844;-3.210;2023-04-24T03:44:35;0;0;
45871;PMS5003;32333;55.844;-3.210;2023-04-24T03:47:03;0;0;
45871;PMS5003;32333;55.844;-3.210;2023-04-24T03:49:30;0;0;
45871;PMS5003;32333;55.844;-3.210;2023-04-24T03:51:58;0;0;
45871;PMS5003;32333;55.844;-3.210;2023-04-24T03:54:26;0;0;
45871;PMS5003;32333;55.844;-3.210;2023-04-24T03:56:54;0;0;
45871;PMS5003;32333;55.844;-3.210;2023-04-24T03:59:21;0;0;
45871;PMS5003;32333;55.844;-3.210;2023-04-24T04:01:50;0;0;
45871;PMS5003;32333;55.844;-3.210;2023-04-24T04:04:18;0;0;
45871;PMS5003;32333;55.844;-3.210;2023-04-24T04:06:46;0;0;
45871;PMS5003;32333;55.844;-3.210;2023-04-24T04:09:15;0;0;
45871;PMS5003;32333;55.844;-3.210;2023-04-24T04:11:42;0;0;
45871;PMS5003;32333;55.844;-3.210;2023-04-24T04:14:35;0;0;
45871;PMS5003;32333;55.844;-3.210;2023-04-24T04:17:03;0;0;
45871;PMS5003;32333;55.844;-3.210;2023-04-24T04:19:30;0;0;
45871;PMS5003;32333;55.844;-3.210;2023-04-24T04:21:59;0;0;
45871;PMS5003;32333;55.844;-3.210;2023-04-24T04:24:26;0;0;
45871;PMS5003;32333;55.844;-3.210;2023-04-24T04:26:54;0;0;
45871;PMS5003;32333;55.844;-3.210;2023-04-24T04:29:22;0;0;
45871;PMS5003;32333;55.844;-3.210;2023-04-24T04:31:49;0;0;
45871;PMS5003;32333;55.844;-3.210;2023-04-24T04:34:17;0;0;
45871;PMS5003;32333;55.844;-3.210;2023-04-24T04:36:44;0;0;
45871;PMS5003;32333;55.844;-3.210;2023-04-24T04:39:13;0;0;
45871;PMS5003;32333;55.844;-3.210;2023-04-24T04:41:41;0;0;
45871;PMS5003;32333;55.844;-3.210;2023-04-24T04:44:35;0;0;
45871;PMS5003;32333;55.844;-3.210;2023-04-24T04:47:03;0;0;
45871;PMS5003;32333;55.844;-3.210;2023-04-24T04:49:30;0;0;
45871;PMS5003;32333;55.844;-3.210;2023-04-24T04:51:59;0;0;
45871;PMS5003;32333;55.844;-3.210;2023-04-24T04:54:26;0;0;
45871;PMS5003;32333;55.844;-3.210;2023-04-24T04:56:54;0;0;
45871;PMS5003;32333;55.844;-3.210;2023-04-24T04:59:21;0;0;
45871;PMS5003;32333;55.844;-3.210;2023-04-24T05:01:50;0;0;
45871;PMS5003;32333;55.844;-3.210;2023-04-24T05:04:17;0;0;
45871;PMS5003;32333;55.844;-3.210;2023-04-24T05:06:45;0;0;
45871;PMS5003;32333;55.844;-3.210;2023-04-24T05:09:13;0;0;
45871;PMS5003;32333;55.844;-3.210;2023-04-24T05:11:41;0;0;
45871;PMS5003;32333;55.844;-3.210;2023-04-24T05:14:35;1;1;
45871;PMS5003;32333;55.844;-3.210;2023-04-24T05:17:03;0;0;
45871;PMS5003;32333;55.844;-3.210;2023-04-24T05:19:30;0;0;
45871;PMS5003;32333;55.844;-3.210;2023-04-24T05:21:59;0;0;
45871;PMS5003;32333;55.844;-3.210;2023-04-24T05:24:26;0;0;
45871;PMS5003;32333;55.844;-3.210;2023-04-24T05:26:54;0;0;
45871;PMS5003;32333;55.844;-3.210;2023-04-24T05:29:21;0;0;
45871;PMS5003;32333;55.844;-3.210;2023-04-24T05:31:49;0;0;
45871;PMS5003;32333;55.844;-3.210;2023-04-24T05:34:17;0;0;
45871;PMS5003;32333;55.844;-3.210;2023-04-24T05:36:44;0;0;
45871;PMS5003;32333;55.844;-3.210;2023-04-24T05:39:13;0;0;
45871;PMS5003;32333;55.844;-3.210;2023-04-24T05:41:40;0;0;
45871;PMS5003;32333;55.844;-3.210;2023-04-24T05:44:35;0;0;
45871;PMS5003;32333;55.844;-3.210;2023-04-24T05:47:03;0;0;
45871;PMS5003;32333;55.844;-3.210;2023-04-24T05:49:31;0;0;
45871;PMS5003;32333;55.844;-3.210;2023-04-24T05:51:59;3;3;
45871;PMS5003;32333;55.844;-3.210;2023-04-24T05:54:27;0;0;
45871;PMS5003;32333;55.844;-3.210;2023-04-24T05:56:54;0;0;
45871;PMS5003;32333;55.844;-3.210;2023-04-24T05:59:22;0;0;
45871;PMS5003;32333;55.844;-3.210;2023-04-24T06:01:50;3;0;
45871;PMS5003;32333;55.844;-3.210;2023-04-24T06:04:18;0;0;
45871;PMS5003;32333;55.844;-3.210;2023-04-24T06:06:45;0;0;
45871;PMS5003;32333;55.844;-3.210;2023-04-24T06:09:14;0;0;
45871;PMS5003;32333;55.844;-3.210;2023-04-24T06:11:41;0;0;
45871;PMS5003;32333;55.844;-3.210;2023-04-24T06:14:35;0;0;
45871;PMS5003;32333;55.844;-3.210;2023-04-24T06:17:03;0;0;
45871;PMS5003;32333;55.844;-3.210;2023-04-24T06:19:30;0;0;
45871;PMS5003;32333;55.844;-3.210;2023-04-24T06:21:59;0;0;
45871;PMS5003;32333;55.844;-3.210;2023-04-24T06:24:27;0;0;
45871;PMS5003;32333;55.844;-3.210;2023-04-24T06:26:55;0;0;
45871;PMS5003;32333;55.844;-3.210;2023-04-24T06:29:22;0;0;
45871;PMS5003;32333;55.844;-3.210;2023-04-24T06:31:50;0;0;
45871;PMS5003;32333;55.844;-3.210;2023-04-24T06:34:17;0;0;
45871;PMS5003;32333;55.844;-3.210;2023-04-24T06:36:46;0;0;
45871;PMS5003;32333;55.844;-3.210;2023-04-24T06:39:14;0;0;
45871;PMS5003;32333;55.844;-3.210;2023-04-24T06:41:42;0;0;
45871;PMS5003;32333;55.844;-3.210;2023-04-24T06:44:35;0;0;
45871;PMS5003;32333;55.844;-3.210;2023-04-24T06:47:03;0;0;
45871;PMS5003;32333;55.844;-3.210;2023-04-24T06:49:30;0;0;
45871;PMS5003;32333;55.844;-3.210;2023-04-24T06:51:59;0;0;
45871;PMS5003;32333;55.844;-3.210;2023-04-24T06:54:26;0;0;
45871;PMS5003;32333;55.844;-3.210;2023-04-24T06:56:54;0;0;
45871;PMS5003;32333;55.844;-3.210;2023-04-24T06:59:23;0;0;
45871;PMS5003;32333;55.844;-3.210;2023-04-24T07:01:51;0;0;
45871;PMS5003;32333;55.844;-3.210;2023-04-24T07:04:18;0;0;
45871;PMS5003;32333;55.844;-3.210;2023-04-24T07:06:46;0;0;
45871;PMS5003;32333;55.844;-3.210;2023-04-24T07:09:14;0;0;
45871;PMS5003;32333;55.844;-3.210;2023-04-24T07:11:42;1;1;
45871;PMS5003;32333;55.844;-3.210;2023-04-24T07:14:35;0;0;
45871;PMS5003;32333;55.844;-3.210;2023-04-24T07:17:03;0;0;
45871;PMS5003;32333;55.844;-3.210;2023-04-24T07:19:30;0;0;
45871;PMS5003;32333;55.844;-3.210;2023-04-24T07:21:57;0;0;
45871;PMS5003;32333;55.844;-3.210;2023-04-24T07:24:25;0;0;
45871;PMS5003;32333;55.844;-3.210;2023-04-24T07:26:53;0;0;
45871;PMS5003;32333;55.844;-3.210;2023-04-24T07:29:21;91;91;
45871;PMS5003;32333;55.844;-3.210;2023-04-24T07:31:48;21;21;
45871;PMS5003;32333;55.844;-3.210;2023-04-24T07:34:15;7;7;
45871;PMS5003;32333;55.844;-3.210;2023-04-24T07:36:42;79;79;
45871;PMS5003;32333;55.844;-3.210;2023-04-24T07:39:10;97;97;
45871;PMS5003;32333;55.844;-3.210;2023-04-24T07:41:37;105;105;
45871;PMS5003;32333;55.844;-3.210;2023-04-24T07:44:35;120;120;
45871;PMS5003;32333;55.844;-3.210;2023-04-24T07:47:03;63;63;
45871;PMS5003;32333;55.844;-3.210;2023-04-24T07:49:30;211;210;
45871;PMS5003;32333;55.844;-3.210;2023-04-24T07:51:58;73;73;
45871;PMS5003;32333;55.844;-3.210;2023-04-24T07:54:25;19;19;
45871;PMS5003;32333;55.844;-3.210;2023-04-24T07:56:53;6;6;
45871;PMS5003;32333;55.844;-3.210;2023-04-24T07:59:21;6;6;
45871;PMS5003;32333;55.844;-3.210;2023-04-24T08:01:49;144;144;
45871;PMS5003;32333;55.844;-3.210;2023-04-24T08:04:16;69;69;
45871;PMS5003;32333;55.844;-3.210;2023-04-24T08:06:47;88;88;
45871;PMS5003;32333;55.844;-3.210;2023-04-24T08:09:14;31;31;
45871;PMS5003;32333;55.844;-3.210;2023-04-24T08:11:43;18;18;
45871;PMS5003;32333;55.844;-3.210;2023-04-24T08:14:34;0;0;
45871;PMS5003;32333;55.844;-3.210;2023-04-24T08:17:02;0;0;
45871;PMS5003;32333;55.844;-3.210;2023-04-24T08:19:29;0;0;
45871;PMS5003;32333;55.844;-3.210;2023-04-24T08:21:56;0;0;
45871;PMS5003;32333;55.844;-3.210;2023-04-24T08:24:24;0;0;
45871;PMS5003;32333;55.844;-3.210;2023-04-24T08:26:52;0;0;
45871;PMS5003;32333;55.844;-3.210;2023-04-24T08:29:19;0;0;
45871;PMS5003;32333;55.844;-3.210;2023-04-24T08:31:48;0;0;
45871;PMS5003;32333;55.844;-3.210;2023-04-24T08:34:16;0;0;
45871;PMS5003;32333;55.844;-3.210;2023-04-24T08:36:43;0;0;
45871;PMS5003;32333;55.844;-3.210;2023-04-24T08:39:11;1;0;
45871;PMS5003;32333;55.844;-3.210;2023-04-24T08:41:39;0;0;
45871;PMS5003;32333;55.844;-3.210;2023-04-24T08:44:35;0;0;
45871;PMS5003;32333;55.844;-3.210;2023-04-24T08:47:03;0;0;
45871;PMS5003;32333;55.844;-3.210;2023-04-24T08:49:34;0;0;
45871;PMS5003;32333;55.844;-3.210;2023-04-24T08:52:03;0;0;
45871;PMS5003;32333;55.844;-3.210;2023-04-24T08:54:33;0;0;
45871;PMS5003;32333;55.844;-3.210;2023-04-24T08:57:02;0;0;
45871;PMS5003;32333;55.844;-3.210;2023-04-24T08:59:30;0;0;
45871;PMS5003;32333;55.844;-3.210;2023-04-24T09:01:59;0;0;
45871;PMS5003;32333;55.844;-3.210;2023-04-24T09:04:28;0;0;
45871;PMS5003;32333;55.844;-3.210;2023-04-24T09:06:57;0;0;
45871;PMS5003;32333;55.844;-3.210;2023-04-24T09:09:25;0;0;
45871;PMS5003;32333;55.844;-3.210;2023-04-24T09:11:52;0;0;
45871;PMS5003;32333;55.844;-3.210;2023-04-24T09:14:35;0;0;
45871;PMS5003;32333;55.844;-3.210;2023-04-24T09:17:03;0;0;
45871;PMS5003;32333;55.844;-3.210;2023-04-24T09:19:30;0;0;
45871;PMS5003;32333;55.844;-3.210;2023-04-24T09:21:59;0;0;
45871;PMS5003;32333;55.844;-3.210;2023-04-24T09:24:30;0;0;
45871;PMS5003;32333;55.844;-3.210;2023-04-24T09:26:59;0;0;
45871;PMS5003;32333;55.844;-3.210;2023-04-24T09:29:26;0;0;
45871;PMS5003;32333;55.844;-3.210;2023-04-24T09:31:55;0;0;
45871;PMS5003;32333;55.844;-3.210;2023-04-24T09:34:23;0;0;
45871;PMS5003;32333;55.844;-3.210;2023-04-24T09:36:52;0;0;
45871;PMS5003;32333;55.844;-3.210;2023-04-24T09:39:22;0;0;
45871;PMS5003;32333;55.844;-3.210;2023-04-24T09:41:50;13;13;
45871;PMS5003;32333;55.844;-3.210;2023-04-24T09:44:35;16;16;
45871;PMS5003;32333;55.844;-3.210;2023-04-24T09:47:03;16;16;
45871;PMS5003;32333;55.844;-3.210;2023-04-24T09:49:36;12;12;
45871;PMS5003;32333;55.844;-3.210;2023-04-24T09:52:04;21;16;
45871;PMS5003;32333;55.844;-3.210;2023-04-24T09:54:34;12;12;
45871;PMS5003;32333;55.844;-3.210;2023-04-24T09:57:01;16;16;
45871;PMS5003;32333;55.844;-3.210;2023-04-24T09:59:29;25;25;
45871;PMS5003;32333;55.844;-3.210;2023-04-24T10:01:57;25;25;
45871;PMS5003;32333;55.844;-3.210;2023-04-24T10:04:27;28;28;
45871;PMS5003;32333;55.844;-3.210;2023-04-24T10:06:56;19;19;
45871;PMS5003;32333;55.844;-3.210;2023-04-24T10:09:25;22;22;
45871;PMS5003;32333;55.844;-3.210;2023-04-24T10:11:54;16;16;
45871;PMS5003;32333;55.844;-3.210;2023-04-24T10:14:35;0;0;
45871;PMS5003;32333;55.844;-3.210;2023-04-24T10:17:04;0;0;
45871;PMS5003;32333;55.844;-3.210;2023-04-24T10:19:34;0;0;
45871;PMS5003;32333;55.844;-3.210;2023-04-24T10:22:03;0;0;
45871;PMS5003;32333;55.844;-3.210;2023-04-24T10:24:33;0;0;
45871;PMS5003;32333;55.844;-3.210;2023-04-24T10:27:00;0;0;
45871;PMS5003;32333;55.844;-3.210;2023-04-24T10:29:30;0;0;
45871;PMS5003;32333;55.844;-3.210;2023-04-24T10:31:58;0;0;
45871;PMS5003;32333;55.844;-3.210;2023-04-24T10:34:25;0;0;
45871;PMS5003;32333;55.844;-3.210;2023-04-24T10:36:53;0;0;
45871;PMS5003;32333;55.844;-3.210;2023-04-24T10:39:23;0;0;
45871;PMS5003;32333;55.844;-3.210;2023-04-24T10:41:52;0;0;
45871;PMS5003;32333;55.844;-3.210;2023-04-24T10:44:35;0;0;
45871;PMS5003;32333;55.844;-3.210;2023-04-24T10:47:03;0;0;
45871;PMS5003;32333;55.844;-3.210;2023-04-24T10:49:31;0;0;
45871;PMS5003;32333;55.844;-3.210;2023-04-24T10:52:00;0;0;
45871;PMS5003;32333;55.844;-3.210;2023-04-24T10:54:34;0;0;
45871;PMS5003;32333;55.844;-3.210;2023-04-24T10:57:34;0;0;
45871;PMS5003;32333;55.844;-3.210;2023-04-24T11:00:10;0;0;
45871;PMS5003;32333;55.844;-3.210;2023-04-24T11:02:41;0;0;
45871;PMS5003;32333;55.844;-3.210;2023-04-24T11:05:10;0;0;
45871;PMS5003;32333;55.844;-3.210;2023-04-24T11:08:10;0;0;
45871;PMS5003;32333;55.844;-3.210;2023-04-24T11:10:43;0;0;
45871;PMS5003;32333;55.844;-3.210;2023-04-24T11:15:10;0;0;
45871;PMS5003;32333;55.844;-3.210;2023-04-24T11:17:38;1;1;
45871;PMS5003;32333;55.844;-3.210;2023-04-24T11:20:09;7;7;
45871;PMS5003;32333;55.844;-3.210;2023-04-24T11:22:39;0;0;
45871;PMS5003;32333;55.844;-3.210;2023-04-24T11:25:07;0;0;
45871;PMS5003;32333;55.844;-3.210;2023-04-24T11:27:38;0;0;
45871;PMS5003;32333;55.844;-3.210;2023-04-24T11:30:08;0;0;
45871;PMS5003;32333;55.844;-3.210;2023-04-24T11:32:38;0;0;
45871;PMS5003;32333;55.844;-3.210;2023-04-24T11:35:07;0;0;
45871;PMS5003;32333;55.844;-3.210;2023-04-24T11:37:42;0;0;
45871;PMS5003;32333;55.844;-3.210;2023-04-24T11:40:12;0;0;
45871;PMS5003;32333;55.844;-3.210;2023-04-24T11:44:35;0;0;
45871;PMS5003;32333;55.844;-3.210;2023-04-24T11:47:03;0;0;
45871;PMS5003;32333;55.844;-3.210;2023-04-24T11:49:30;1;1;
45871;PMS5003;32333;55.844;-3.210;2023-04-24T11:51:59;0;0;
45871;PMS5003;32333;55.844;-3.210;2023-04-24T11:54:27;0;0;
45871;PMS5003;32333;55.844;-3.210;2023-04-24T11:56:55;0;0;
45871;PMS5003;32333;55.844;-3.210;2023-04-24T11:59:24;0;0;
45871;PMS5003;32333;55.844;-3.210;2023-04-24T12:01:51;0;0;
45871;PMS5003;32333;55.844;-3.210;2023-04-24T12:04:19;0;0;
45871;PMS5003;32333;55.844;-3.210;2023-04-24T12:07:05;0;0;
45871;PMS5003;32333;55.844;-3.210;2023-04-24T12:09:41;0;0;
45871;PMS5003;32333;55.844;-3.210;2023-04-24T12:14:41;7;7;
45871;PMS5003;32333;55.844;-3.210;2023-04-24T12:17:11;6;6;
45871;PMS5003;32333;55.844;-3.210;2023-04-24T12:19:44;0;0;
45871;PMS5003;32333;55.844;-3.210;2023-04-24T12:22:12;0;0;
45871;PMS5003;32333;55.844;-3.210;2023-04-24T12:25:15;0;0;
45871;PMS5003;32333;55.844;-3.210;2023-04-24T12:27:43;0;0;
45871;PMS5003;32333;55.844;-3.210;2023-04-24T12:30:13;0;0;
45871;PMS5003;32333;55.844;-3.210;2023-04-24T12:32:41;10;10;
45871;PMS5003;32333;55.844;-3.210;2023-04-24T12:35:10;0;0;
45871;PMS5003;32333;55.844;-3.210;2023-04-24T12:37:38;0;0;
45871;PMS5003;32333;55.844;-3.210;2023-04-24T12:40:06;0;0;
45871;PMS5003;32333;55.844;-3.210;2023-04-24T12:44:35;0;0;
45871;PMS5003;32333;55.844;-3.210;2023-04-24T12:47:03;0;0;
45871;PMS5003;32333;55.844;-3.210;2023-04-24T12:49:30;0;0;
45871;PMS5003;32333;55.844;-3.210;2023-04-24T12:51:59;0;0;
45871;PMS5003;32333;55.844;-3.210;2023-04-24T12:54:26;0;0;
45871;PMS5003;32333;55.844;-3.210;2023-04-24T12:56:59;0;0;
45871;PMS5003;32333;55.844;-3.210;2023-04-24T12:59:26;0;0;
45871;PMS5003;32333;55.844;-3.210;2023-04-24T13:01:54;0;0;
45871;PMS5003;32333;55.844;-3.210;2023-04-24T13:04:22;0;0;
45871;PMS5003;32333;55.844;-3.210;2023-04-24T13:06:50;3;1;
45871;PMS5003;32333;55.844;-3.210;2023-04-24T13:09:17;0;0;
45871;PMS5003;32333;55.844;-3.210;2023-04-24T13:11:45;0;0;
45871;PMS5003;32333;55.844;-3.210;2023-04-24T13:14:35;0;0;
45871;PMS5003;32333;55.844;-3.210;2023-04-24T13:17:04;0;0;
45871;PMS5003;32333;55.844;-3.210;2023-04-24T13:19:35;0;0;
45871;PMS5003;32333;55.844;-3.210;2023-04-24T13:22:03;0;0;
45871;PMS5003;32333;55.844;-3.210;2023-04-24T13:24:32;0;0;
45871;PMS5003;32333;55.844;-3.210;2023-04-24T13:26:59;0;0;
45871;PMS5003;32333;55.844;-3.210;2023-04-24T13:29:27;0;0;
45871;PMS5003;32333;55.844;-3.210;2023-04-24T13:31:54;0;0;
45871;PMS5003;32333;55.844;-3.210;2023-04-24T13:34:24;0;0;
45871;PMS5003;32333;55.844;-3.210;2023-04-24T13:36:52;0;0;
45871;PMS5003;32333;55.844;-3.210;2023-04-24T13:39:22;73;73;
45871;PMS5003;32333;55.844;-3.210;2023-04-24T13:41:51;19;19;
45871;PMS5003;32333;55.844;-3.210;2023-04-24T13:44:35;0;0;
45871;PMS5003;32333;55.844;-3.210;2023-04-24T13:47:03;0;0;
45871;PMS5003;32333;55.844;-3.210;2023-04-24T13:49:31;0;0;
45871;PMS5003;32333;55.844;-3.210;2023-04-24T13:51:59;37;37;
45871;PMS5003;32333;55.844;-3.210;2023-04-24T13:54:27;93;93;
45871;PMS5003;32333;55.844;-3.210;2023-04-24T13:56:55;39;39;
45871;PMS5003;32333;55.844;-3.210;2023-04-24T13:59:24;31;31;
45871;PMS5003;32333;55.844;-3.210;2023-04-24T14:01:51;6;6;
45871;PMS5003;32333;55.844;-3.210;2023-04-24T14:04:19;4;4;
45871;PMS5003;32333;55.844;-3.210;2023-04-24T14:06:46;0;0;
45871;PMS5003;32333;55.844;-3.210;2023-04-24T14:09:14;0;0;
45871;PMS5003;32333;55.844;-3.210;2023-04-24T14:11:41;0;0;
45871;PMS5003;32333;55.844;-3.210;2023-04-24T14:14:34;9;9;
45871;PMS5003;32333;55.844;-3.210;2023-04-24T14:17:02;30;28;
45871;PMS5003;32333;55.844;-3.210;2023-04-24T14:19:30;30;30;
45871;PMS5003;32333;55.844;-3.210;2023-04-24T14:21:57;15;15;
45871;PMS5003;32333;55.844;-3.210;2023-04-24T14:24:24;4;4;
45871;PMS5003;32333;55.844;-3.210;2023-04-24T14:26:52;75;75;
45871;PMS5003;32333;55.844;-3.210;2023-04-24T14:29:19;16;16;
45871;PMS5003;32333;55.844;-3.210;2023-04-24T14:31:47;63;63;
45871;PMS5003;32333;55.844;-3.210;2023-04-24T14:34:15;16;16;
45871;PMS5003;32333;55.844;-3.210;2023-04-24T14:36:43;4;4;
45871;PMS5003;32333;55.844;-3.210;2023-04-24T14:39:11;0;0;
45871;PMS5003;32333;55.844;-3.210;2023-04-24T14:41:39;0;0;
45871;PMS5003;32333;55.844;-3.210;2023-04-24T14:44:35;1;1;
45871;PMS5003;32333;55.844;-3.210;2023-04-24T14:47:58;0;0;
45871;PMS5003;32333;55.844;-3.210;2023-04-24T14:50:25;0;0;
45871;PMS5003;32333;55.844;-3.210;2023-04-24T14:52:53;0;0;
45871;PMS5003;32333;55.844;-3.210;2023-04-24T14:55:22;6;6;
45871;PMS5003;32333;55.844;-3.210;2023-04-24T14:57:57;0;0;
45871;PMS5003;32333;55.844;-3.210;2023-04-24T15:00:24;0;0;
45871;PMS5003;32333;55.844;-3.210;2023-04-24T15:02:52;0;0;
45871;PMS5003;32333;55.844;-3.210;2023-04-24T15:05:19;10;10;
45871;PMS5003;32333;55.844;-3.210;2023-04-24T15:07:47;22;22;
45871;PMS5003;32333;55.844;-3.210;2023-04-24T15:10:14;0;0;
45871;PMS5003;32333;55.844;-3.210;2023-04-24T15:14:35;0;0;
45871;PMS5003;32333;55.844;-3.210;2023-04-24T15:17:04;0;0;
45871;PMS5003;32333;55.844;-3.210;2023-04-24T15:19:31;0;0;
45871;PMS5003;32333;55.844;-3.210;2023-04-24T15:22:00;0;0;
45871;PMS5003;32333;55.844;-3.210;2023-04-24T15:24:27;1;1;
45871;PMS5003;32333;55.844;-3.210;2023-04-24T15:26:55;0;0;
45871;PMS5003;32333;55.844;-3.210;2023-04-24T15:29:22;0;0;
45871;PMS5003;32333;55.844;-3.210;2023-04-24T15:31:50;0;0;
45871;PMS5003;32333;55.844;-3.210;2023-04-24T15:34:17;0;0;
45871;PMS5003;32333;55.844;-3.210;2023-04-24T15:36:44;0;0;
45871;PMS5003;32333;55.844;-3.210;2023-04-24T15:39:13;1;0;
45871;PMS5003;32333;55.844;-3.210;2023-04-24T15:41:40;0;0;
45871;PMS5003;32333;55.844;-3.210;2023-04-24T15:44:35;0;0;
45871;PMS5003;32333;55.844;-3.210;2023-04-24T15:47:02;0;0;
45871;PMS5003;32333;55.844;-3.210;2023-04-24T15:49:30;0;0;
45871;PMS5003;32333;55.844;-3.210;2023-04-24T15:51:59;0;0;
45871;PMS5003;32333;55.844;-3.210;2023-04-24T15:54:27;0;0;
45871;PMS5003;32333;55.844;-3.210;2023-04-24T15:56:54;0;0;
45871;PMS5003;32333;55.844;-3.210;2023-04-24T15:59:23;0;0;
45871;PMS5003;32333;55.844;-3.210;2023-04-24T16:01:50;0;0;
45871;PMS5003;32333;55.844;-3.210;2023-04-24T16:04:18;0;0;
45871;PMS5003;32333;55.844;-3.210;2023-04-24T16:06:45;0;0;
45871;PMS5003;32333;55.844;-3.210;2023-04-24T16:09:13;0;0;
45871;PMS5003;32333;55.844;-3.210;2023-04-24T16:11:40;0;0;
45871;PMS5003;32333;55.844;-3.210;2023-04-24T16:14:35;0;0;
45871;PMS5003;32333;55.844;-3.210;2023-04-24T16:17:03;0;0;
45871;PMS5003;32333;55.844;-3.210;2023-04-24T16:19:31;0;0;
45871;PMS5003;32333;55.844;-3.210;2023-04-24T16:21:59;0;0;
45871;PMS5003;32333;55.844;-3.210;2023-04-24T16:24:27;0;0;
45871;PMS5003;32333;55.844;-3.210;2023-04-24T16:26:55;0;0;
45871;PMS5003;32333;55.844;-3.210;2023-04-24T16:29:23;0;0;
45871;PMS5003;32333;55.844;-3.210;2023-04-24T16:31:51;0;0;
45871;PMS5003;32333;55.844;-3.210;2023-04-24T16:34:18;0;0;
45871;PMS5003;32333;55.844;-3.210;2023-04-24T16:36:47;0;0;
45871;PMS5003;32333;55.844;-3.210;2023-04-24T16:39:14;0;0;
45871;PMS5003;32333;55.844;-3.210;2023-04-24T16:41:42;0;0;
45871;PMS5003;32333;55.844;-3.210;2023-04-24T16:44:35;0;0;
45871;PMS5003;32333;55.844;-3.210;2023-04-24T16:47:02;0;0;
45871;PMS5003;32333;55.844;-3.210;2023-04-24T16:49:30;0;0;
45871;PMS5003;32333;55.844;-3.210;2023-04-24T16:51:59;0;0;
45871;PMS5003;32333;55.844;-3.210;2023-04-24T16:54:28;0;0;
45871;PMS5003;32333;55.844;-3.210;2023-04-24T16:56:55;0;0;
45871;PMS5003;32333;55.844;-3.210;2023-04-24T16:59:26;6;6;
45871;PMS5003;32333;55.844;-3.210;2023-04-24T17:01:55;4;0;